sensor_id;sensor_type;location;lat;lon;timestamp;pressure;altitude;pressure_sealevel;temperature;humidity
15229;BME280;7717;47.792;12.076;2023-11-21T00:01:26;95696.91;;;8.76;83.77
15229;BME280;7717;47.792;12.076;2023-11-21T00:03:51;95717.16;;;8.67;84.84
15229;BME280;7717;47.792;12.076;2023-11-21T00:06:20;95711.75;;;8.61;84.16
15229;BME280;7717;47.792;12.076;2023-11-21T00:08:45;95700.81;;;8.41;83.32
15229;BME280;7717;47.792;12.076;2023-11-21T00:11:11;95696.22;;;8.43;78.05
15229;BME280;7717;47.792;12.076;2023-11-21T00:13:36;95697.38;;;8.24;82.63
15229;BME280;7717;47.792;12.076;2023-11-21T00:16:06;95701.06;;;7.99;88.96
15229;BME280;7717;47.792;12.076;2023-11-21T00:18:32;95702.91;;;7.74;91.47
15229;BME280;7717;47.792;12.076;2023-11-21T00:20:57;95712.09;;;7.54;93.23
15229;BME280;7717;47.792;12.076;2023-11-21T00:23:24;95652.19;;;7.25;94.55
15229;BME280;7717;47.792;12.076;2023-11-21T00:25:49;95704.69;;;7.74;95.19
15229;BME280;7717;47.792;12.076;2023-11-21T00:28:15;95711.59;;;7.67;95.46
15229;BME280;7717;47.792;12.076;2023-11-21T00:30:40;95685.66;;;7.39;95.96
15229;BME280;7717;47.792;12.076;2023-11-21T00:33:05;95702.91;;;7.58;97.24
15229;BME280;7717;47.792;12.076;2023-11-21T00:35:31;95704.69;;;7.74;95.62
15229;BME280;7717;47.792;12.076;2023-11-21T00:37:56;95700.13;;;7.76;96.17
15229;BME280;7717;47.792;12.076;2023-11-21T00:40:22;95712.25;;;7.77;95.71
15229;BME280;7717;47.792;12.076;2023-11-21T00:42:48;95710.47;;;7.69;96.98
15229;BME280;7717;47.792;12.076;2023-11-21T00:45:13;95710.13;;;7.72;97.05
15229;BME280;7717;47.792;12.076;2023-11-21T00:47:39;95709.47;;;7.70;97.13
15229;BME280;7717;47.792;12.076;2023-11-21T00:50:08;95718.19;;;7.63;96.83
15229;BME280;7717;47.792;12.076;2023-11-21T00:52:33;95711.78;;;7.57;97.80
15229;BME280;7717;47.792;12.076;2023-11-21T00:54:59;95711.13;;;7.55;98.33
15229;BME280;7717;47.792;12.076;2023-11-21T00:57:26;95702.72;;;7.51;99.10
15229;BME280;7717;47.792;12.076;2023-11-21T00:59:51;95706.03;;;7.62;98.70
15229;BME280;7717;47.792;12.076;2023-11-21T01:02:17;95708.00;;;7.59;98.36
15229;BME280;7717;47.792;12.076;2023-11-21T01:04:42;95670.56;;;7.25;98.52
15229;BME280;7717;47.792;12.076;2023-11-21T01:07:08;95696.50;;;7.28;98.98
15229;BME280;7717;47.792;12.076;2023-11-21T01:09:34;95704.19;;;7.13;99.58
15229;BME280;7717;47.792;12.076;2023-11-21T01:11:59;95700.53;;;6.98;100.00
15229;BME280;7717;47.792;12.076;2023-11-21T01:14:25;95702.88;;;7.01;100.00
15229;BME280;7717;47.792;12.076;2023-11-21T01:16:52;95705.50;;;7.01;100.00
15229;BME280;7717;47.792;12.076;2023-11-21T01:19:18;95641.78;;;6.59;100.00
15229;BME280;7717;47.792;12.076;2023-11-21T01:21:43;95699.69;;;6.82;100.00
15229;BME280;7717;47.792;12.076;2023-11-21T01:24:12;95702.66;;;6.87;100.00
15229;BME280;7717;47.792;12.076;2023-11-21T01:26:37;95693.75;;;6.71;100.00
15229;BME280;7717;47.792;12.076;2023-11-21T01:29:02;95689.59;;;6.53;100.00
15229;BME280;7717;47.792;12.076;2023-11-21T01:31:28;95686.88;;;6.62;100.00
15229;BME280;7717;47.792;12.076;2023-11-21T01:33:55;95678.66;;;6.57;100.00
15229;BME280;7717;47.792;12.076;2023-11-21T01:36:21;95684.19;;;6.46;100.00
15229;BME280;7717;47.792;12.076;2023-11-21T01:38:47;95685.25;;;6.27;100.00
15229;BME280;7717;47.792;12.076;2023-11-21T01:41:13;95659.94;;;6.02;100.00
15229;BME280;7717;47.792;12.076;2023-11-21T01:43:39;95680.94;;;6.10;100.00
15229;BME280;7717;47.792;12.076;2023-11-21T01:46:05;95685.50;;;6.08;100.00
15229;BME280;7717;47.792;12.076;2023-11-21T01:48:31;95686.94;;;6.03;100.00
15229;BME280;7717;47.792;12.076;2023-11-21T01:50:58;95638.25;;;5.66;100.00
15229;BME280;7717;47.792;12.076;2023-11-21T01:53:26;95674.41;;;5.88;100.00
15229;BME280;7717;47.792;12.076;2023-11-21T01:55:55;95665.34;;;5.83;100.00
15229;BME280;7717;47.792;12.076;2023-11-21T01:58:20;95682.81;;;6.00;100.00
15229;BME280;7717;47.792;12.076;2023-11-21T02:00:47;95675.69;;;5.84;100.00
15229;BME280;7717;47.792;12.076;2023-11-21T02:03:16;95672.81;;;5.70;100.00
15229;BME280;7717;47.792;12.076;2023-11-21T02:05:41;95668.94;;;5.56;100.00
15229;BME280;7717;47.792;12.076;2023-11-21T02:08:07;95673.75;;;5.43;100.00
15229;BME280;7717;47.792;12.076;2023-11-21T02:10:34;95673.28;;;5.47;100.00
15229;BME280;7717;47.792;12.076;2023-11-21T02:13:02;95680.44;;;5.37;100.00
15229;BME280;7717;47.792;12.076;2023-11-21T02:15:28;95674.97;;;5.13;100.00
15229;BME280;7717;47.792;12.076;2023-11-21T02:17:54;95681.63;;;5.07;100.00
15229;BME280;7717;47.792;12.076;2023-11-21T02:20:21;95667.88;;;5.23;100.00
15229;BME280;7717;47.792;12.076;2023-11-21T02:22:53;95668.75;;;5.49;100.00
15229;BME280;7717;47.792;12.076;2023-11-21T02:25:29;95659.19;;;5.40;100.00
15229;BME280;7717;47.792;12.076;2023-11-21T02:27:56;95666.75;;;5.69;100.00
15229;BME280;7717;47.792;12.076;2023-11-21T02:30:22;95657.81;;;5.80;100.00
15229;BME280;7717;47.792;12.076;2023-11-21T02:32:50;95640.56;;;5.69;100.00
15229;BME280;7717;47.792;12.076;2023-11-21T02:35:18;95663.22;;;5.78;100.00
15229;BME280;7717;47.792;12.076;2023-11-21T02:37:49;95657.91;;;5.70;100.00
15229;BME280;7717;47.792;12.076;2023-11-21T02:40:15;95660.50;;;5.88;100.00
15229;BME280;7717;47.792;12.076;2023-11-21T02:42:48;95661.44;;;5.87;100.00
15229;BME280;7717;47.792;12.076;2023-11-21T02:45:15;95644.50;;;5.91;100.00
15229;BME280;7717;47.792;12.076;2023-11-21T02:47:44;95656.28;;;5.95;100.00
15229;BME280;7717;47.792;12.076;2023-11-21T02:50:10;95637.13;;;5.69;100.00
15229;BME280;7717;47.792;12.076;2023-11-21T02:52:35;95661.84;;;5.74;100.00
15229;BME280;7717;47.792;12.076;2023-11-21T02:55:04;95654.28;;;5.63;100.00
15229;BME280;7717;47.792;12.076;2023-11-21T02:57:30;95658.53;;;5.64;100.00
15229;BME280;7717;47.792;12.076;2023-11-21T02:59:55;95652.91;;;5.59;100.00
15229;BME280;7717;47.792;12.076;2023-11-21T03:02:21;95663.50;;;5.75;100.00
15229;BME280;7717;47.792;12.076;2023-11-21T03:04:47;95665.34;;;5.83;100.00
15229;BME280;7717;47.792;12.076;2023-11-21T03:07:15;95667.84;;;5.84;100.00
15229;BME280;7717;47.792;12.076;2023-11-21T03:09:40;95634.38;;;5.70;100.00
15229;BME280;7717;47.792;12.076;2023-11-21T03:12:06;95649.31;;;5.86;100.00
15229;BME280;7717;47.792;12.076;2023-11-21T03:14:31;95651.19;;;5.93;100.00
15229;BME280;7717;47.792;12.076;2023-11-21T03:16:57;95652.84;;;5.94;100.00
15229;BME280;7717;47.792;12.076;2023-11-21T03:19:22;95609.56;;;5.56;100.00
15229;BME280;7717;47.792;12.076;2023-11-21T03:21:47;95638.63;;;5.71;100.00
15229;BME280;7717;47.792;12.076;2023-11-21T03:24:13;95649.88;;;5.89;100.00
15229;BME280;7717;47.792;12.076;2023-11-21T03:26:38;95654.88;;;5.83;100.00
15229;BME280;7717;47.792;12.076;2023-11-21T03:29:04;95654.84;;;5.75;100.00
15229;BME280;7717;47.792;12.076;2023-11-21T03:31:30;95660.41;;;5.72;100.00
15229;BME280;7717;47.792;12.076;2023-11-21T03:33:55;95660.53;;;5.70;100.00
15229;BME280;7717;47.792;12.076;2023-11-21T03:36:21;95660.06;;;5.75;100.00
15229;BME280;7717;47.792;12.076;2023-11-21T03:38:48;95669.25;;;5.79;100.00
15229;BME280;7717;47.792;12.076;2023-11-21T03:41:13;95664.81;;;5.71;100.00
15229;BME280;7717;47.792;12.076;2023-11-21T03:43:40;95617.31;;;5.40;100.00
15229;BME280;7717;47.792;12.076;2023-11-21T03:46:05;95665.09;;;5.68;100.00
15229;BME280;7717;47.792;12.076;2023-11-21T03:48:31;95667.03;;;5.66;100.00
15229;BME280;7717;47.792;12.076;2023-11-21T03:50:58;95623.50;;;5.39;100.00
15229;BME280;7717;47.792;12.076;2023-11-21T03:53:23;95661.66;;;5.68;100.00
15229;BME280;7717;47.792;12.076;2023-11-21T03:55:49;95656.94;;;5.71;100.00
15229;BME280;7717;47.792;12.076;2023-11-21T03:58:15;95655.50;;;5.77;100.00
15229;BME280;7717;47.792;12.076;2023-11-21T04:00:41;95652.16;;;5.67;100.00
15229;BME280;7717;47.792;12.076;2023-11-21T04:03:06;95657.88;;;5.62;100.00
15229;BME280;7717;47.792;12.076;2023-11-21T04:05:32;95653.13;;;5.66;100.00
15229;BME280;7717;47.792;12.076;2023-11-21T04:07:57;95653.72;;;5.51;100.00
15229;BME280;7717;47.792;12.076;2023-11-21T04:10:23;95650.56;;;5.48;100.00
15229;BME280;7717;47.792;12.076;2023-11-21T04:12:48;95653.28;;;5.38;100.00
15229;BME280;7717;47.792;12.076;2023-11-21T04:15:14;95650.09;;;5.27;100.00
15229;BME280;7717;47.792;12.076;2023-11-21T04:17:40;95650.53;;;5.22;100.00
15229;BME280;7717;47.792;12.076;2023-11-21T04:20:08;95660.31;;;5.20;100.00
15229;BME280;7717;47.792;12.076;2023-11-21T04:22:41;95655.50;;;5.25;100.00
15229;BME280;7717;47.792;12.076;2023-11-21T04:25:13;95663.16;;;5.27;100.00
15229;BME280;7717;47.792;12.076;2023-11-21T04:27:40;95658.91;;;5.26;100.00
15229;BME280;7717;47.792;12.076;2023-11-21T04:30:06;95657.94;;;5.27;100.00
15229;BME280;7717;47.792;12.076;2023-11-21T04:32:31;95657.31;;;5.33;100.00
15229;BME280;7717;47.792;12.076;2023-11-21T04:34:57;95658.69;;;5.37;100.00
15229;BME280;7717;47.792;12.076;2023-11-21T04:37:23;95519.59;;;4.54;100.00
15229;BME280;7717;47.792;12.076;2023-11-21T04:39:49;95656.63;;;5.48;100.00
15229;BME280;7717;47.792;12.076;2023-11-21T04:42:15;95646.25;;;5.39;100.00
15229;BME280;7717;47.792;12.076;2023-11-21T04:44:40;95650.88;;;5.45;100.00
15229;BME280;7717;47.792;12.076;2023-11-21T04:47:06;95640.56;;;5.43;100.00
15229;BME280;7717;47.792;12.076;2023-11-21T04:49:33;95655.34;;;5.52;100.00
15229;BME280;7717;47.792;12.076;2023-11-21T04:51:58;95669.97;;;5.63;100.00
15229;BME280;7717;47.792;12.076;2023-11-21T04:54:24;95670.94;;;5.62;100.00
15229;BME280;7717;47.792;12.076;2023-11-21T04:56:50;95668.13;;;5.55;100.00
15229;BME280;7717;47.792;12.076;2023-11-21T04:59:15;95667.91;;;5.49;100.00
15229;BME280;7717;47.792;12.076;2023-11-21T05:01:40;95669.34;;;5.43;100.00
15229;BME280;7717;47.792;12.076;2023-11-21T05:04:06;95667.78;;;5.33;100.00
15229;BME280;7717;47.792;12.076;2023-11-21T05:06:31;95666.16;;;5.32;100.00
15229;BME280;7717;47.792;12.076;2023-11-21T05:08:58;95668.09;;;5.30;100.00
15229;BME280;7717;47.792;12.076;2023-11-21T05:11:27;95662.56;;;5.33;100.00
15229;BME280;7717;47.792;12.076;2023-11-21T05:13:54;95666.97;;;5.32;100.00
15229;BME280;7717;47.792;12.076;2023-11-21T05:16:21;95665.63;;;5.28;100.00
15229;BME280;7717;47.792;12.076;2023-11-21T05:18:47;95669.34;;;5.26;100.00
15229;BME280;7717;47.792;12.076;2023-11-21T05:21:12;95671.41;;;5.32;100.00
15229;BME280;7717;47.792;12.076;2023-11-21T05:23:38;95669.28;;;5.35;100.00
15229;BME280;7717;47.792;12.076;2023-11-21T05:26:03;95662.41;;;5.34;100.00
15229;BME280;7717;47.792;12.076;2023-11-21T05:28:29;95664.78;;;5.45;100.00
15229;BME280;7717;47.792;12.076;2023-11-21T05:30:55;95662.91;;;5.55;100.00
15229;BME280;7717;47.792;12.076;2023-11-21T05:33:20;95665.03;;;5.60;100.00
15229;BME280;7717;47.792;12.076;2023-11-21T05:35:46;95676.34;;;5.60;100.00
15229;BME280;7717;47.792;12.076;2023-11-21T05:38:14;95669.97;;;5.63;100.00
15229;BME280;7717;47.792;12.076;2023-11-21T05:40:39;95672.81;;;5.70;100.00
15229;BME280;7717;47.792;12.076;2023-11-21T05:43:04;95669.88;;;5.73;100.00
15229;BME280;7717;47.792;12.076;2023-11-21T05:45:31;95678.53;;;5.73;100.00
15229;BME280;7717;47.792;12.076;2023-11-21T05:48:00;95673.16;;;5.75;100.00
15229;BME280;7717;47.792;12.076;2023-11-21T05:50:26;95675.31;;;5.79;100.00
15229;BME280;7717;47.792;12.076;2023-11-21T05:52:51;95684.44;;;5.75;100.00
15229;BME280;7717;47.792;12.076;2023-11-21T05:55:17;95674.47;;;5.79;100.00
15229;BME280;7717;47.792;12.076;2023-11-21T05:57:43;95663.38;;;5.77;100.00
15229;BME280;7717;47.792;12.076;2023-11-21T06:00:10;95671.50;;;5.74;100.00
15229;BME280;7717;47.792;12.076;2023-11-21T06:02:41;95682.72;;;5.84;100.00
15229;BME280;7717;47.792;12.076;2023-11-21T06:05:07;95687.75;;;5.77;100.00
15229;BME280;7717;47.792;12.076;2023-11-21T06:07:33;95679.91;;;5.77;100.00
15229;BME280;7717;47.792;12.076;2023-11-21T06:10:03;95689.22;;;5.80;100.00
15229;BME280;7717;47.792;12.076;2023-11-21T06:12:32;95698.44;;;5.84;100.00
15229;BME280;7717;47.792;12.076;2023-11-21T06:15:01;95694.78;;;5.77;100.00
15229;BME280;7717;47.792;12.076;2023-11-21T06:17:29;95701.75;;;5.68;100.00
15229;BME280;7717;47.792;12.076;2023-11-21T06:19:54;95714.00;;;5.68;100.00
15229;BME280;7717;47.792;12.076;2023-11-21T06:22:20;95706.00;;;5.69;100.00
15229;BME280;7717;47.792;12.076;2023-11-21T06:24:46;95713.88;;;5.69;100.00
15229;BME280;7717;47.792;12.076;2023-11-21T06:27:11;95719.78;;;5.71;100.00
15229;BME280;7717;47.792;12.076;2023-11-21T06:29:37;95724.13;;;5.63;100.00
15229;BME280;7717;47.792;12.076;2023-11-21T06:32:02;95689.97;;;5.46;100.00
15229;BME280;7717;47.792;12.076;2023-11-21T06:34:30;95730.03;;;5.65;100.00
15229;BME280;7717;47.792;12.076;2023-11-21T06:36:59;95703.59;;;5.50;100.00
15229;BME280;7717;47.792;12.076;2023-11-21T06:39:24;95737.06;;;5.64;100.00
15229;BME280;7717;47.792;12.076;2023-11-21T06:41:50;95722.13;;;5.56;100.00
15229;BME280;7717;47.792;12.076;2023-11-21T06:44:15;95687.44;;;5.37;100.00
15229;BME280;7717;47.792;12.076;2023-11-21T06:46:41;95750.06;;;5.74;100.00
15229;BME280;7717;47.792;12.076;2023-11-21T06:49:08;95729.66;;;5.59;100.00
15229;BME280;7717;47.792;12.076;2023-11-21T06:51:42;95738.69;;;5.65;100.00
15229;BME280;7717;47.792;12.076;2023-11-21T06:54:07;95735.84;;;5.76;100.00
15229;BME280;7717;47.792;12.076;2023-11-21T06:56:33;95730.50;;;5.86;100.00
15229;BME280;7717;47.792;12.076;2023-11-21T06:58:58;95733.34;;;5.92;100.00
15229;BME280;7717;47.792;12.076;2023-11-21T07:01:23;95735.53;;;5.97;100.00
15229;BME280;7717;47.792;12.076;2023-11-21T07:03:49;95728.03;;;6.02;100.00
15229;BME280;7717;47.792;12.076;2023-11-21T07:06:15;95729.06;;;6.09;100.00
15229;BME280;7717;47.792;12.076;2023-11-21T07:08:40;95739.06;;;6.14;100.00
15229;BME280;7717;47.792;12.076;2023-11-21T07:11:06;95722.47;;;6.05;100.00
15229;BME280;7717;47.792;12.076;2023-11-21T07:13:32;95744.16;;;6.15;100.00
15229;BME280;7717;47.792;12.076;2023-11-21T07:15:58;95747.44;;;6.17;100.00
15229;BME280;7717;47.792;12.076;2023-11-21T07:18:24;95741.25;;;6.26;100.00
15229;BME280;7717;47.792;12.076;2023-11-21T07:20:49;95743.44;;;6.31;100.00
15229;BME280;7717;47.792;12.076;2023-11-21T07:23:15;95726.50;;;6.25;100.00
15229;BME280;7717;47.792;12.076;2023-11-21T07:25:43;95739.69;;;6.42;100.00
15229;BME280;7717;47.792;12.076;2023-11-21T07:28:09;95745.63;;;6.52;100.00
15229;BME280;7717;47.792;12.076;2023-11-21T07:30:34;95748.63;;;6.57;100.00
15229;BME280;7717;47.792;12.076;2023-11-21T07:33:00;95702.78;;;6.27;100.00
15229;BME280;7717;47.792;12.076;2023-11-21T07:35:25;95742.13;;;6.69;100.00
15229;BME280;7717;47.792;12.076;2023-11-21T07:37:51;95691.84;;;6.39;100.00
15229;BME280;7717;47.792;12.076;2023-11-21T07:40:17;95745.72;;;6.68;100.00
15229;BME280;7717;47.792;12.076;2023-11-21T07:42:43;95754.25;;;6.70;100.00
15229;BME280;7717;47.792;12.076;2023-11-21T07:45:10;95751.09;;;6.66;100.00
15229;BME280;7717;47.792;12.076;2023-11-21T07:47:36;95742.13;;;6.69;100.00
15229;BME280;7717;47.792;12.076;2023-11-21T07:50:03;95755.06;;;6.70;100.00
15229;BME280;7717;47.792;12.076;2023-11-21T07:52:28;95749.97;;;6.69;100.00
15229;BME280;7717;47.792;12.076;2023-11-21T07:54:54;95749.50;;;6.73;100.00
15229;BME280;7717;47.792;12.076;2023-11-21T07:57:19;95740.97;;;6.71;100.00
15229;BME280;7717;47.792;12.076;2023-11-21T07:59:48;95726.53;;;6.67;100.00
15229;BME280;7717;47.792;12.076;2023-11-21T08:02:14;95741.19;;;6.78;100.00
15229;BME280;7717;47.792;12.076;2023-11-21T08:04:41;95742.97;;;6.86;100.00
15229;BME280;7717;47.792;12.076;2023-11-21T08:07:07;95744.31;;;6.90;100.00
15229;BME280;7717;47.792;12.076;2023-11-21T08:09:32;95749.09;;;7.02;100.00
15229;BME280;7717;47.792;12.076;2023-11-21T08:11:59;95742.88;;;7.11;100.00
15229;BME280;7717;47.792;12.076;2023-11-21T08:14:25;95745.69;;;7.26;100.00
15229;BME280;7717;47.792;12.076;2023-11-21T08:16:51;95744.41;;;7.38;100.00
15229;BME280;7717;47.792;12.076;2023-11-21T08:19:17;95743.09;;;7.34;100.00
15229;BME280;7717;47.792;12.076;2023-11-21T08:21:43;95754.09;;;7.46;100.00
15229;BME280;7717;47.792;12.076;2023-11-21T08:24:09;95753.44;;;7.60;100.00
15229;BME280;7717;47.792;12.076;2023-11-21T08:26:36;95742.94;;;7.60;100.00
15229;BME280;7717;47.792;12.076;2023-11-21T08:29:02;95748.69;;;7.72;100.00
15229;BME280;7717;47.792;12.076;2023-11-21T08:31:27;95754.75;;;7.72;100.00
15229;BME280;7717;47.792;12.076;2023-11-21T08:33:53;95744.13;;;7.57;100.00
15229;BME280;7717;47.792;12.076;2023-11-21T08:36:22;95726.34;;;7.27;98.55
15229;BME280;7717;47.792;12.076;2023-11-21T08:38:53;95749.34;;;7.41;99.05
15229;BME280;7717;47.792;12.076;2023-11-21T08:41:21;95749.84;;;7.53;98.72
15229;BME280;7717;47.792;12.076;2023-11-21T08:43:50;95749.00;;;7.52;97.88
15229;BME280;7717;47.792;12.076;2023-11-21T08:46:16;95733.28;;;7.44;97.93
15229;BME280;7717;47.792;12.076;2023-11-21T08:48:44;95766.75;;;7.75;97.12
15229;BME280;7717;47.792;12.076;2023-11-21T08:51:10;95765.28;;;7.64;92.01
15229;BME280;7717;47.792;12.076;2023-11-21T08:53:39;95765.75;;;7.51;95.42
15229;BME280;7717;47.792;12.076;2023-11-21T08:56:05;95765.94;;;7.66;94.42
15229;BME280;7717;47.792;12.076;2023-11-21T08:58:31;95756.25;;;7.83;96.93
15229;BME280;7717;47.792;12.076;2023-11-21T09:00:57;95771.16;;;7.98;94.89
15229;BME280;7717;47.792;12.076;2023-11-21T09:03:23;95745.06;;;7.73;91.49
15229;BME280;7717;47.792;12.076;2023-11-21T09:05:48;95765.59;;;7.85;91.97
15229;BME280;7717;47.792;12.076;2023-11-21T09:08:14;95770.22;;;7.75;87.42
15229;BME280;7717;47.792;12.076;2023-11-21T09:10:39;95769.88;;;7.70;87.89
15229;BME280;7717;47.792;12.076;2023-11-21T09:13:05;95775.13;;;7.62;88.37
15229;BME280;7717;47.792;12.076;2023-11-21T09:15:30;95775.94;;;7.63;89.77
15229;BME280;7717;47.792;12.076;2023-11-21T09:18:01;95775.28;;;7.44;90.58
15229;BME280;7717;47.792;12.076;2023-11-21T09:20:27;95757.56;;;7.54;89.07
15229;BME280;7717;47.792;12.076;2023-11-21T09:22:54;95756.75;;;7.62;91.51
15229;BME280;7717;47.792;12.076;2023-11-21T09:25:20;95780.84;;;7.98;91.48
15229;BME280;7717;47.792;12.076;2023-11-21T09:27:46;95762.31;;;8.08;91.08
15229;BME280;7717;47.792;12.076;2023-11-21T09:30:12;95782.66;;;8.06;87.18
15229;BME280;7717;47.792;12.076;2023-11-21T09:32:39;95785.94;;;8.24;87.90
15229;BME280;7717;47.792;12.076;2023-11-21T09:35:06;95791.84;;;8.26;83.56
15229;BME280;7717;47.792;12.076;2023-11-21T09:37:33;95778.84;;;8.24;84.01
15229;BME280;7717;47.792;12.076;2023-11-21T09:39:59;95763.94;;;8.17;84.07
15229;BME280;7717;47.792;12.076;2023-11-21T09:42:38;95789.25;;;8.10;84.06
15229;BME280;7717;47.792;12.076;2023-11-21T09:45:11;95798.28;;;8.23;84.94
15229;BME280;7717;47.792;12.076;2023-11-21T09:47:42;95792.38;;;8.38;82.21
15229;BME280;7717;47.792;12.076;2023-11-21T09:50:08;95792.03;;;8.32;84.00
15229;BME280;7717;47.792;12.076;2023-11-21T09:52:52;95790.72;;;8.36;83.33
15229;BME280;7717;47.792;12.076;2023-11-21T09:55:21;95785.94;;;8.32;82.56
15229;BME280;7717;47.792;12.076;2023-11-21T09:57:47;95730.47;;;7.94;82.42
15229;BME280;7717;47.792;12.076;2023-11-21T10:00:14;95785.28;;;8.30;83.89
15229;BME280;7717;47.792;12.076;2023-11-21T10:02:43;95783.31;;;8.32;85.39
15229;BME280;7717;47.792;12.076;2023-11-21T10:05:09;95778.69;;;8.26;84.20
15229;BME280;7717;47.792;12.076;2023-11-21T10:07:36;95768.22;;;8.02;86.38
15229;BME280;7717;47.792;12.076;2023-11-21T10:10:03;95785.28;;;8.22;85.77
15229;BME280;7717;47.792;12.076;2023-11-21T10:12:33;95772.47;;;8.19;84.49
15229;BME280;7717;47.792;12.076;2023-11-21T10:15:01;95782.19;;;8.34;86.96
15229;BME280;7717;47.792;12.076;2023-11-21T10:17:28;95787.28;;;8.36;86.89
15229;BME280;7717;47.792;12.076;2023-11-21T10:20:06;95778.91;;;8.16;85.99
15229;BME280;7717;47.792;12.076;2023-11-21T10:22:38;95797.78;;;8.36;87.79
15229;BME280;7717;47.792;12.076;2023-11-21T10:25:04;95793.97;;;8.55;87.89
15229;BME280;7717;47.792;12.076;2023-11-21T10:27:34;95789.06;;;8.35;85.34
15229;BME280;7717;47.792;12.076;2023-11-21T10:30:03;95788.41;;;8.33;85.79
15229;BME280;7717;47.792;12.076;2023-11-21T10:32:31;95794.66;;;8.32;86.06
15229;BME280;7717;47.792;12.076;2023-11-21T10:35:04;95787.25;;;8.28;87.31
15229;BME280;7717;47.792;12.076;2023-11-21T10:37:39;95791.22;;;8.32;87.30
15229;BME280;7717;47.792;12.076;2023-11-21T10:40:09;95799.88;;;8.24;87.38
15229;BME280;7717;47.792;12.076;2023-11-21T10:42:38;95800.41;;;8.28;89.19
15229;BME280;7717;47.792;12.076;2023-11-21T10:45:09;95796.31;;;8.33;87.79
15229;BME280;7717;47.792;12.076;2023-11-21T10:47:41;95801.72;;;8.24;87.44
15229;BME280;7717;47.792;12.076;2023-11-21T10:50:10;95795.28;;;8.26;86.85
15229;BME280;7717;47.792;12.076;2023-11-21T10:52:42;95798.44;;;8.30;87.01
15229;BME280;7717;47.792;12.076;2023-11-21T10:55:20;95793.50;;;8.35;86.75
15229;BME280;7717;47.792;12.076;2023-11-21T10:57:53;95790.66;;;8.61;86.74
15229;BME280;7717;47.792;12.076;2023-11-21T11:00:19;95782.47;;;8.95;86.59
15229;BME280;7717;47.792;12.076;2023-11-21T11:02:52;95781.63;;;9.02;84.54
15229;BME280;7717;47.792;12.076;2023-11-21T11:05:26;95797.75;;;8.99;85.32
15229;BME280;7717;47.792;12.076;2023-11-21T11:08:05;95797.88;;;9.06;86.54
15229;BME280;7717;47.792;12.076;2023-11-21T11:10:33;95802.44;;;8.73;87.05
15229;BME280;7717;47.792;12.076;2023-11-21T11:12:58;95792.28;;;8.70;86.45
15229;BME280;7717;47.792;12.076;2023-11-21T11:15:25;95788.63;;;8.79;86.50
15229;BME280;7717;47.792;12.076;2023-11-21T11:17:52;95792.22;;;8.86;86.71
15229;BME280;7717;47.792;12.076;2023-11-21T11:20:23;95794.50;;;8.97;86.05
15229;BME280;7717;47.792;12.076;2023-11-21T11:23:04;95788.94;;;8.84;85.41
15229;BME280;7717;47.792;12.076;2023-11-21T11:26:00;95786.78;;;8.88;85.58
15229;BME280;7717;47.792;12.076;2023-11-21T11:28:47;95785.41;;;9.00;86.05
15229;BME280;7717;47.792;12.076;2023-11-21T11:31:25;95778.31;;;9.08;86.18
15229;BME280;7717;47.792;12.076;2023-11-21T11:34:17;95718.16;;;8.58;83.49
15229;BME280;7717;47.792;12.076;2023-11-21T11:36:49;95760.78;;;8.93;83.52
15229;BME280;7717;47.792;12.076;2023-11-21T11:39:30;95773.91;;;9.01;84.44
15229;BME280;7717;47.792;12.076;2023-11-21T11:41:57;95783.53;;;9.16;83.58
15229;BME280;7717;47.792;12.076;2023-11-21T11:47:27;95769.28;;;9.34;84.84
15229;BME280;7717;47.792;12.076;2023-11-21T11:50:17;95782.81;;;9.53;84.20
15229;BME280;7717;47.792;12.076;2023-11-21T11:52:50;95773.53;;;9.43;85.04
15229;BME280;7717;47.792;12.076;2023-11-21T11:55:19;95781.66;;;9.56;85.24
15229;BME280;7717;47.792;12.076;2023-11-21T11:57:46;95778.22;;;9.55;82.91
15229;BME280;7717;47.792;12.076;2023-11-21T12:00:22;95781.44;;;9.88;85.14
15229;BME280;7717;47.792;12.076;2023-11-21T12:02:53;95773.47;;;9.96;81.16
15229;BME280;7717;47.792;12.076;2023-11-21T12:05:27;95766.13;;;10.73;83.88
15229;BME280;7717;47.792;12.076;2023-11-21T12:07:54;95763.25;;;11.19;81.64
15229;BME280;7717;47.792;12.076;2023-11-21T12:10:27;95747.00;;;10.71;77.31
15229;BME280;7717;47.792;12.076;2023-11-21T12:12:55;95760.53;;;10.98;78.09
15229;BME280;7717;47.792;12.076;2023-11-21T12:15:20;95755.88;;;11.29;77.97
15229;BME280;7717;47.792;12.076;2023-11-21T12:17:47;95752.66;;;11.34;79.53
15229;BME280;7717;47.792;12.076;2023-11-21T12:20:24;95762.50;;;12.53;80.55
15229;BME280;7717;47.792;12.076;2023-11-21T12:22:51;95764.13;;;12.54;76.71
15229;BME280;7717;47.792;12.076;2023-11-21T12:27:51;95769.22;;;12.27;68.91
15229;BME280;7717;47.792;12.076;2023-11-21T12:30:20;95751.44;;;12.77;70.32
15229;BME280;7717;47.792;12.076;2023-11-21T12:32:54;95734.06;;;11.63;73.64
15229;BME280;7717;47.792;12.076;2023-11-21T12:35:26;95769.38;;;12.19;73.32
15229;BME280;7717;47.792;12.076;2023-11-21T12:37:52;95766.56;;;12.00;80.78
15229;BME280;7717;47.792;12.076;2023-11-21T12:40:19;95766.06;;;11.53;80.27
15229;BME280;7717;47.792;12.076;2023-11-21T12:42:46;95766.97;;;11.25;78.93
15229;BME280;7717;47.792;12.076;2023-11-21T12:48:04;95761.53;;;11.47;75.40
15229;BME280;7717;47.792;12.076;2023-11-21T12:50:35;95735.09;;;11.26;81.36
15229;BME280;7717;47.792;12.076;2023-11-21T12:53:11;95766.34;;;11.23;78.11
15229;BME280;7717;47.792;12.076;2023-11-21T12:55:38;95747.47;;;10.90;82.37
15229;BME280;7717;47.792;12.076;2023-11-21T12:58:08;95707.63;;;10.70;81.01
15229;BME280;7717;47.792;12.076;2023-11-21T13:00:38;95764.47;;;11.17;80.27
15229;BME280;7717;47.792;12.076;2023-11-21T13:03:05;95761.19;;;11.00;80.63
15229;BME280;7717;47.792;12.076;2023-11-21T13:05:39;95753.34;;;10.92;75.86
15229;BME280;7717;47.792;12.076;2023-11-21T13:08:06;95769.84;;;10.94;79.49
15229;BME280;7717;47.792;12.076;2023-11-21T13:10:35;95762.50;;;10.89;82.38
15229;BME280;7717;47.792;12.076;2023-11-21T13:13:03;95766.03;;;10.52;82.47
15229;BME280;7717;47.792;12.076;2023-11-21T13:15:40;95733.91;;;10.34;82.09